Time;durP1;ratioP1;P1;durP2;ratioP2;P2;SDS_P1;SDS_P2;PMS_P1;PMS_P2;Temp;Humidity;BMP_temperature;BMP_pressure;BME280_temperature;BME280_humidity;BME280_pressure;Samples;Min_cycle;Max_cycle;Signal;HPM_P1;HPM_P2
2021/05/21 00:02:20;;;;;;;6.25;4.72;;;15.60;96.40;;;;;;5073154;28;20140;-74
2021/05/21 00:04:45;;;;;;;7.28;5.60;;;15.60;96.40;;;;;;5073213;28;20471;-74
2021/05/21 00:07:11;;;;;;;6.18;5.57;;;15.50;96.40;;;;;;5073102;28;20039;-74
2021/05/21 00:09:37;;;;;;;6.53;5.30;;;15.50;96.50;;;;;;5073025;28;20044;-74
2021/05/21 00:12:03;;;;;;;7.18;5.50;;;15.50;96.50;;;;;;5054475;28;20033;-74
2021/05/21 00:14:29;;;;;;;6.18;5.50;;;15.40;96.50;;;;;;5053894;28;20544;-74
2021/05/21 00:16:54;;;;;;;7.10;5.85;;;15.30;96.50;;;;;;5054012;28;20332;-74
2021/05/21 00:19:20;;;;;;;7.32;6.38;;;15.30;96.60;;;;;;5053468;28;20032;-74
2021/05/21 00:21:46;;;;;;;7.72;6.25;;;15.20;96.60;;;;;;5035673;28;20032;-74
2021/05/21 00:24:12;;;;;;;8.77;6.93;;;15.30;96.60;;;;;;5053288;28;20029;-74
2021/05/21 00:26:37;;;;;;;9.65;6.78;;;15.20;96.60;;;;;;5052451;28;20032;-74
2021/05/21 00:29:03;;;;;;;7.47;6.22;;;15.20;96.60;;;;;;5053071;28;20029;-74
2021/05/21 00:31:29;;;;;;;8.15;6.72;;;15.20;96.70;;;;;;5054010;28;20025;-75
2021/05/21 00:33:55;;;;;;;8.90;7.53;;;15.10;96.70;;;;;;5035601;28;20046;-75
2021/05/21 00:36:20;;;;;;;9.52;7.22;;;15.10;96.70;;;;;;5035552;28;20021;-75
2021/05/21 00:38:46;;;;;;;9.88;7.82;;;15.10;96.70;;;;;;5053628;28;20033;-75
2021/05/21 00:41:12;;;;;;;8.80;7.70;;;15.00;96.70;;;;;;5053775;28;20057;-74
2021/05/21 00:43:37;;;;;;;9.35;7.05;;;15.00;96.70;;;;;;5035303;28;20032;-74
2021/05/21 00:46:03;;;;;;;8.05;7.07;;;15.00;96.70;;;;;;5053861;28;20032;-75
2021/05/21 00:48:29;;;;;;;7.93;7.07;;;15.00;96.70;;;;;;5053272;28;20025;-75
2021/05/21 00:50:55;;;;;;;8.27;7.38;;;15.00;96.70;;;;;;5035364;28;20374;-75
2021/05/21 00:53:29;;;;;;;9.55;7.13;;;14.90;96.60;;;;;;5053328;28;20459;-75
2021/05/21 00:55:59;;;;;;;8.52;6.85;;;14.80;96.60;;;;;;5035263;28;20105;-75
2021/05/21 00:58:26;;;;;;;7.80;6.38;;;14.80;96.60;;;;;;5053751;28;20098;-75
2021/05/21 01:00:53;;;;;;;7.47;6.57;;;14.80;96.60;;;;;;5053579;28;20082;-75
2021/05/21 01:03:19;;;;;;;6.82;6.05;;;14.80;96.70;;;;;;5053450;28;20017;-74
2021/05/21 01:05:44;;;;;;;7.10;6.25;;;14.80;96.70;;;;;;5053129;28;20033;-74
2021/05/21 01:08:10;;;;;;;6.72;6.03;;;14.80;96.70;;;;;;5053018;28;20032;-75
2021/05/21 01:10:36;;;;;;;6.43;5.72;;;14.70;96.70;;;;;;5052854;28;20052;-75
2021/05/21 01:13:02;;;;;;;7.13;5.60;;;14.70;96.80;;;;;;5052431;28;20025;-75
2021/05/21 01:15:28;;;;;;;7.80;5.57;;;14.60;96.80;;;;;;5034347;28;20112;-74
2021/05/21 01:17:53;;;;;;;6.72;5.47;;;14.70;96.80;;;;;;5052515;28;20471;-74
2021/05/21 01:20:19;;;;;;;6.55;5.50;;;14.60;96.80;;;;;;5052614;28;20047;-74
2021/05/21 01:22:45;;;;;;;6.72;5.55;;;14.60;96.90;;;;;;5052230;28;20025;-74
2021/05/21 01:25:11;;;;;;;6.00;5.25;;;14.60;96.80;;;;;;5034194;28;20029;-74
2021/05/21 01:27:36;;;;;;;6.03;5.32;;;14.60;96.90;;;;;;5052361;28;20040;-74
2021/05/21 01:30:07;;;;;;;7.15;5.60;;;14.50;96.90;;;;;;5052281;28;20036;-75
2021/05/21 01:32:33;;;;;;;5.50;5.00;;;14.50;97.00;;;;;;5052421;28;20024;-74
2021/05/21 01:34:59;;;;;;;5.38;4.88;;;14.50;97.00;;;;;;5035508;28;20112;-74
2021/05/21 01:37:25;;;;;;;5.72;5.22;;;14.50;97.00;;;;;;5056050;28;20025;-74
2021/05/21 01:39:51;;;;;;;6.85;5.03;;;14.50;97.00;;;;;;5055739;28;20036;-74
2021/05/21 01:42:18;;;;;;;5.07;4.57;;;14.50;97.00;;;;;;5038052;28;20025;-74
2021/05/21 01:44:44;;;;;;;6.57;4.93;;;14.50;97.00;;;;;;5038098;28;20033;-74
2021/05/21 01:47:11;;;;;;;6.47;5.03;;;14.50;97.00;;;;;;5055737;28;20053;-74
2021/05/21 01:49:37;;;;;;;6.47;5.30;;;14.50;97.00;;;;;;5062713;28;20020;-74
2021/05/21 01:52:03;;;;;;;5.63;4.85;;;14.50;97.00;;;;;;5057202;28;20025;-75
2021/05/21 01:54:29;;;;;;;5.82;4.25;;;14.50;96.90;;;;;;5037758;28;20033;-75
2021/05/21 01:56:56;;;;;;;4.75;4.25;;;14.40;96.80;;;;;;5055769;28;20053;-74
2021/05/21 01:59:24;;;;;;;4.05;3.65;;;14.40;96.80;;;;;;5055686;28;20028;-74
2021/05/21 02:01:50;;;;;;;4.55;3.20;;;14.40;96.70;;;;;;5055331;28;20029;-75
2021/05/21 02:04:34;;;;;;;3.30;3.10;;;14.40;96.60;;;;;;5055408;28;20025;-75
2021/05/21 02:07:00;;;;;;;3.30;3.00;;;14.40;96.40;;;;;;5056152;28;20030;-75
2021/05/21 02:09:27;;;;;;;3.35;3.05;;;14.40;96.30;;;;;;5037710;28;20123;-79
2021/05/21 02:11:53;;;;;;;6.57;3.45;;;14.40;96.10;;;;;;5055789;28;20033;-79
2021/05/21 02:14:19;;;;;;;3.40;3.10;;;14.40;95.90;;;;;;5055585;28;20021;-78
2021/05/21 02:16:45;;;;;;;4.00;2.90;;;14.40;95.90;;;;;;5055516;28;20017;-78
2021/05/21 02:19:10;;;;;;;2.88;2.67;;;14.30;95.70;;;;;;5055643;28;20032;-78
2021/05/21 02:21:38;;;;;;;4.03;3.00;;;14.40;95.60;;;;;;5038210;28;20079;-80
2021/05/21 02:24:05;;;;;;;3.95;3.55;;;14.40;95.50;;;;;;5037543;28;20036;-77
2021/05/21 02:26:33;;;;;;;2.80;2.60;;;14.40;95.30;;;;;;5037302;28;20078;-79
2021/05/21 02:28:59;;;;;;;2.88;2.60;;;14.40;95.30;;;;;;5037574;28;20123;-79
2021/05/21 02:31:25;;;;;;;3.58;2.33;;;14.40;95.20;;;;;;5055001;28;20056;-77
2021/05/21 02:33:50;;;;;;;2.70;2.50;;;14.40;95.10;;;;;;5055681;28;20104;-80
2021/05/21 02:36:16;;;;;;;2.78;2.58;;;14.30;94.90;;;;;;5037115;28;20025;-81
2021/05/21 02:38:42;;;;;;;2.70;2.50;;;14.40;94.70;;;;;;5055125;28;20045;-81
2021/05/21 02:41:08;;;;;;;4.43;2.60;;;14.40;94.70;;;;;;5037440;28;20079;-79
2021/05/21 02:43:33;;;;;;;4.10;2.42;;;14.30;94.80;;;;;;5037204;28;20426;-81
2021/05/21 02:45:59;;;;;;;3.13;2.80;;;14.30;95.00;;;;;;5054813;28;20021;-80
2021/05/21 02:48:25;;;;;;;3.10;2.90;;;14.30;94.90;;;;;;5055205;28;20052;-81
2021/05/21 02:50:50;;;;;;;2.47;2.28;;;14.40;94.90;;;;;;5054817;28;20108;-80
2021/05/21 02:53:16;;;;;;;2.72;2.35;;;14.40;94.90;;;;;;5055065;28;20052;-81
2021/05/21 02:55:42;;;;;;;2.72;2.53;;;14.50;94.80;;;;;;5036926;28;20025;-82
2021/05/21 02:58:08;;;;;;;3.47;2.83;;;14.50;94.80;;;;;;5054331;28;20025;-80
2021/05/21 03:00:33;;;;;;;2.53;2.33;;;14.50;94.70;;;;;;5036453;28;20384;-82
2021/05/21 03:02:59;;;;;;;3.22;2.58;;;14.50;94.70;;;;;;5054391;28;20147;-84
2021/05/21 03:05:25;;;;;;;2.97;2.78;;;14.60;94.70;;;;;;5054665;28;20031;-88
2021/05/21 03:07:53;;;;;;;2.97;2.72;;;14.60;94.70;;;;;;5036368;28;20546;-84
2021/05/21 03:10:23;;;;;;;3.97;2.85;;;14.70;94.70;;;;;;5054599;28;20142;-79
2021/05/21 03:12:49;;;;;;;3.10;2.80;;;14.70;94.70;;;;;;5036880;28;20021;-81
2021/05/21 03:15:15;;;;;;;2.80;2.60;;;14.80;94.60;;;;;;5036767;28;20025;-87
2021/05/21 03:17:41;;;;;;;2.85;2.65;;;14.90;94.70;;;;;;5055652;28;20074;-88
2021/05/21 03:20:07;;;;;;;3.20;2.90;;;14.90;94.90;;;;;;5075043;28;20032;-87
2021/05/21 03:22:33;;;;;;;3.30;3.00;;;15.00;94.70;;;;;;5055688;28;20060;-88
2021/05/21 03:25:02;;;;;;;3.28;2.97;;;15.10;94.40;;;;;;5074586;28;20032;-86
2021/05/21 03:27:32;;;;;;;3.47;2.92;;;15.20;94.40;;;;;;5056842;28;20048;-89
2021/05/21 03:29:58;;;;;;;5.32;2.72;;;15.20;94.40;;;;;;5062513;28;20021;-87
2021/05/21 03:32:25;;;;;;;4.80;3.15;;;15.30;94.40;;;;;;5054626;28;20040;-89
2021/05/21 03:34:51;;;;;;;4.03;3.00;;;15.30;94.30;;;;;;5053618;28;20052;-88
2021/05/21 03:37:16;;;;;;;3.85;2.78;;;15.40;94.30;;;;;;5054546;28;20040;-87
2021/05/21 03:39:42;;;;;;;2.92;2.53;;;15.50;94.10;;;;;;5054313;28;20486;-91
2021/05/21 03:42:08;;;;;;;3.15;2.70;;;15.50;94.00;;;;;;5053140;28;20059;-88
2021/05/21 03:44:34;;;;;;;2.70;2.50;;;15.60;93.70;;;;;;5053001;28;20370;-82
2021/05/21 03:47:03;;;;;;;5.00;2.25;;;15.60;93.90;;;;;;5036387;28;20025;-85
2021/05/21 03:49:29;;;;;;;2.33;2.13;;;15.70;93.60;;;;;;5053864;28;20471;-86
2021/05/21 03:51:55;;;;;;;2.83;2.00;;;15.70;93.50;;;;;;5053962;28;20663;-82
2021/05/21 03:54:21;;;;;;;1.83;1.73;;;15.80;93.30;;;;;;5036017;28;20379;-84
2021/05/21 03:56:47;;;;;;;1.95;1.83;;;15.80;93.20;;;;;;5054215;28;20032;-78
2021/05/21 03:59:12;;;;;;;2.53;1.90;;;15.80;92.70;;;;;;5035251;28;20025;-78
2021/05/21 04:01:39;;;;;;;2.28;1.88;;;15.90;93.10;;;;;;5036010;28;20032;-78
2021/05/21 04:04:05;;;;;;;1.98;1.88;;;15.90;92.80;;;;;;5035886;28;20029;-78
2021/05/21 04:06:31;;;;;;;2.92;1.75;;;16.00;92.70;;;;;;5053633;28;20025;-78
2021/05/21 04:09:05;;;;;;;2.00;1.75;;;16.00;92.20;;;;;;5053911;28;20039;-79
2021/05/21 04:11:32;;;;;;;1.90;1.80;;;16.00;92.00;;;;;;5035583;28;20081;-79
2021/05/21 04:13:57;;;;;;;1.63;1.52;;;16.10;91.90;;;;;;5061858;28;20029;-80
2021/05/21 04:16:23;;;;;;;1.70;1.60;;;16.10;91.70;;;;;;5055749;28;20020;-79
2021/05/21 04:18:49;;;;;;;1.83;1.73;;;16.10;91.70;;;;;;5055469;28;20383;-84
2021/05/21 04:21:15;;;;;;;2.05;1.92;;;16.10;91.10;;;;;;5056090;28;20032;-83
2021/05/21 04:23:41;;;;;;;1.88;1.77;;;16.10;91.20;;;;;;5055677;28;20541;-83
2021/05/21 04:26:07;;;;;;;1.65;1.55;;;16.10;90.80;;;;;;5055641;28;20123;-85
2021/05/21 04:28:32;;;;;;;1.50;1.40;;;16.10;91.00;;;;;;5055813;28;20024;-89
2021/05/21 04:30:58;;;;;;;1.77;1.67;;;16.10;91.30;;;;;;5055224;28;20170;-77
2021/05/21 04:33:24;;;;;;;2.20;1.60;;;16.10;91.00;;;;;;5074147;28;20020;-76
2021/05/21 04:35:49;;;;;;;1.45;1.35;;;16.10;91.10;;;;;;5073796;28;20111;-75
2021/05/21 04:38:15;;;;;;;1.70;1.60;;;16.10;91.20;;;;;;5055797;28;20024;-89
2021/05/21 04:40:41;;;;;;;3.00;1.73;;;16.20;90.80;;;;;;5065925;28;20043;-85
2021/05/21 04:43:06;;;;;;;1.85;1.75;;;16.20;90.70;;;;;;5054047;28;20047;-81
2021/05/21 04:45:32;;;;;;;2.13;1.40;;;16.20;89.90;;;;;;5053739;28;20020;-86
2021/05/21 04:47:58;;;;;;;2.22;1.73;;;16.20;89.50;;;;;;5053370;28;20025;-87
2021/05/21 04:50:24;;;;;;;2.47;1.60;;;16.10;89.60;;;;;;5053955;28;20025;-87
2021/05/21 04:52:49;;;;;;;1.65;1.55;;;16.10;90.10;;;;;;5054013;28;20017;-88
2021/05/21 04:55:15;;;;;;;1.85;1.70;;;16.10;90.60;;;;;;5035943;28;20025;-88
2021/05/21 04:57:42;;;;;;;2.95;2.20;;;16.10;90.80;;;;;;5053665;28;20033;-85
2021/05/21 05:00:10;;;;;;;3.63;2.60;;;16.10;90.60;;;;;;5036381;28;20032;-93
2021/05/21 05:02:35;;;;;;;3.60;3.20;;;16.20;90.50;;;;;;5037602;28;20048;-78
2021/05/21 05:05:01;;;;;;;1.90;1.80;;;16.20;90.10;;;;;;5054224;28;20467;-91
2021/05/21 05:07:26;;;;;;;2.15;1.95;;;16.30;90.00;;;;;;5035779;28;20068;-90
2021/05/21 05:09:52;;;;;;;1.70;1.60;;;16.40;90.20;;;;;;5038511;28;20056;-96
2021/05/21 05:12:18;;;;;;;1.67;1.58;;;16.40;90.30;;;;;;5039309;28;20021;-89
2021/05/21 05:14:43;;;;;;;2.10;1.63;;;16.40;89.80;;;;;;5039230;28;20120;-93
2021/05/21 05:17:09;;;;;;;1.60;1.50;;;16.50;90.00;;;;;;5033937;28;20514;-96
2021/05/21 05:19:35;;;;;;;2.22;1.67;;;16.40;90.10;;;;;;5046823;28;20115;-90
2021/05/21 05:22:01;;;;;;;1.65;1.30;;;16.50;90.10;;;;;;5039863;28;20467;-93
2021/05/21 05:24:31;;;;;;;1.70;1.60;;;16.50;90.10;;;;;;5039867;28;20129;-91
2021/05/21 05:26:58;;;;;;;1.88;1.65;;;16.50;89.10;;;;;;5039259;28;20033;-84
2021/05/21 05:29:24;;;;;;;1.48;1.38;;;16.60;88.70;;;;;;5039026;28;20021;-93
2021/05/21 05:31:49;;;;;;;1.77;1.45;;;16.60;88.10;;;;;;5039505;28;20033;-93
2021/05/21 05:34:18;;;;;;;1.83;1.67;;;16.60;87.80;;;;;;5039877;28;20045;-90
2021/05/21 05:36:44;;;;;;;1.50;1.40;;;16.60;87.70;;;;;;5057646;28;20024;-96
2021/05/21 05:39:10;;;;;;;2.53;1.50;;;16.60;87.60;;;;;;5038832;28;20029;-92
2021/05/21 05:41:36;;;;;;;1.50;1.40;;;16.70;87.50;;;;;;5037311;28;20025;-94
2021/05/21 05:44:01;;;;;;;1.48;1.38;;;16.70;87.00;;;;;;5029880;28;20056;-93
2021/05/21 05:46:27;;;;;;;1.17;1.08;;;16.70;86.30;;;;;;5053472;28;20041;-86
2021/05/21 05:48:53;;;;;;;1.15;1.05;;;16.80;85.90;;;;;;5039210;28;20463;-92
2021/05/21 05:51:18;;;;;;;0.80;0.80;;;16.80;84.80;;;;;;5039079;28;20024;-90
2021/05/21 05:53:44;;;;;;;1.98;1.50;;;16.90;84.60;;;;;;5039151;28;20017;-95
2021/05/21 05:56:10;;;;;;;1.20;1.10;;;16.90;84.60;;;;;;5039125;28;20028;-90
2021/05/21 05:58:36;;;;;;;3.05;1.20;;;17.00;84.20;;;;;;5056993;28;20096;-81
2021/05/21 06:01:04;;;;;;;1.30;1.20;;;17.00;81.90;;;;;;5056528;28;20071;-86
2021/05/21 06:03:30;;;;;;;1.80;1.60;;;17.00;81.50;;;;;;5038775;28;20116;-92
2021/05/21 06:05:57;;;;;;;2.25;1.42;;;17.10;81.70;;;;;;5038020;28;20112;-88
2021/05/21 06:08:23;;;;;;;4.03;1.73;;;17.10;81.20;;;;;;5038634;28;20123;-81
2021/05/21 06:10:50;;;;;;;3.13;1.60;;;17.20;80.90;;;;;;5059506;28;20128;-84
2021/05/21 06:13:16;;;;;;;2.03;1.58;;;17.20;79.50;;;;;;5037796;28;20082;-80
2021/05/21 06:15:42;;;;;;;1.67;1.52;;;17.20;79.30;;;;;;5054988;28;20033;-89
2021/05/21 06:18:07;;;;;;;1.73;1.63;;;17.20;79.70;;;;;;5055475;28;20421;-86
2021/05/21 06:20:35;;;;;;;1.83;1.70;;;17.20;80.00;;;;;;5037433;28;20024;-77
2021/05/21 06:23:03;;;;;;;2.65;2.38;;;17.20;79.80;;;;;;5037455;28;20033;-89
2021/05/21 06:28:22;;;;;;;1.23;1.13;;;17.30;78.80;;;;;;5055729;28;20116;-84
2021/05/21 06:30:47;;;;;;;2.28;1.70;;;17.30;79.60;;;;;;5030264;28;20036;-81
2021/05/21 06:33:13;;;;;;;1.55;1.45;;;17.40;80.10;;;;;;5037589;28;20025;-81
2021/05/21 06:35:40;;;;;;;1.50;1.40;;;17.50;79.10;;;;;;5055529;28;20463;-87
2021/05/21 06:38:06;;;;;;;3.80;1.45;;;17.60;78.40;;;;;;5036844;28;20054;-79
2021/05/21 06:40:32;;;;;;;1.83;1.73;;;17.80;78.90;;;;;;5036920;28;20429;-82
2021/05/21 06:42:58;;;;;;;1.90;1.70;;;17.80;79.10;;;;;;5054964;28;20033;-80
2021/05/21 06:45:24;;;;;;;1.85;1.58;;;17.90;79.00;;;;;;5054297;28;20064;-85
2021/05/21 06:47:49;;;;;;;1.98;1.80;;;17.90;78.70;;;;;;5036818;28;20056;-83
2021/05/21 06:50:15;;;;;;;3.03;1.83;;;17.80;79.30;;;;;;5055015;28;20025;-83
2021/05/21 06:52:41;;;;;;;1.50;1.40;;;17.80;79.00;;;;;;5054962;28;20486;-88
2021/05/21 06:55:08;;;;;;;3.05;1.80;;;17.70;79.90;;;;;;5053468;28;20114;-82
2021/05/21 06:57:35;;;;;;;1.70;1.60;;;17.80;80.70;;;;;;5055221;28;20094;-83
2021/05/21 07:00:01;;;;;;;2.97;1.90;;;17.80;80.70;;;;;;5037232;28;20043;-78
2021/05/21 07:02:29;;;;;;;3.88;2.00;;;17.80;80.70;;;;;;5054743;28;20493;-80
2021/05/21 07:04:55;;;;;;;1.80;1.70;;;17.80;80.90;;;;;;5036982;28;20037;-82
2021/05/21 07:07:21;;;;;;;2.08;1.98;;;17.70;80.90;;;;;;5054168;28;20490;-80
2021/05/21 07:09:47;;;;;;;3.53;2.00;;;17.60;81.60;;;;;;5073982;28;20506;-82
2021/05/21 07:12:13;;;;;;;1.80;1.70;;;17.60;82.30;;;;;;5074646;28;20160;-80
2021/05/21 07:14:39;;;;;;;2.03;1.92;;;17.50;82.30;;;;;;5042289;28;20022;-78
2021/05/21 07:17:05;;;;;;;5.90;1.88;;;17.50;82.40;;;;;;5035421;28;20053;-76
2021/05/21 07:19:31;;;;;;;2.08;1.98;;;17.40;82.10;;;;;;5037346;28;20104;-80
2021/05/21 07:21:56;;;;;;;1.92;1.83;;;17.30;82.40;;;;;;5036686;28;20056;-78
2021/05/21 07:24:22;;;;;;;2.47;1.90;;;17.20;82.70;;;;;;5052986;28;20037;-88
2021/05/21 07:26:48;;;;;;;2.00;1.80;;;17.20;83.10;;;;;;5052661;28;20029;-86
2021/05/21 07:29:13;;;;;;;2.95;1.90;;;17.20;83.00;;;;;;5035877;28;20057;-81
2021/05/21 07:31:39;;;;;;;1.77;1.67;;;17.20;83.30;;;;;;5053926;28;20025;-85
2021/05/21 07:34:04;;;;;;;2.20;1.70;;;17.20;83.30;;;;;;5031253;28;20032;-82
2021/05/21 07:36:35;;;;;;;2.58;1.77;;;17.20;82.70;;;;;;5036211;28;20043;-86
2021/05/21 07:39:02;;;;;;;2.97;1.70;;;17.20;82.80;;;;;;5057145;28;20030;-84
2021/05/21 07:41:28;;;;;;;1.70;1.60;;;17.20;82.90;;;;;;5036022;28;20493;-78
2021/05/21 07:43:54;;;;;;;3.05;1.33;;;17.20;83.10;;;;;;5036090;28;20021;-76
2021/05/21 07:46:24;;;;;;;1.10;1.10;;;17.20;83.00;;;;;;5053886;28;20025;-82
2021/05/21 07:48:50;;;;;;;4.07;1.15;;;17.30;82.60;;;;;;5036067;28;20017;-85
2021/05/21 07:51:20;;;;;;;1.20;1.00;;;17.30;82.40;;;;;;5054011;28;20065;-82
2021/05/21 07:53:47;;;;;;;1.25;1.15;;;17.40;81.40;;;;;;5045815;28;20032;-90
2021/05/21 07:56:12;;;;;;;1.17;0.90;;;17.40;80.30;;;;;;5053891;28;20071;-85
2021/05/21 07:58:38;;;;;;;0.70;0.70;;;17.40;79.20;;;;;;5053935;28;20025;-79
2021/05/21 08:01:04;;;;;;;0.75;0.63;;;17.40;78.50;;;;;;5036198;28;20029;-82
2021/05/21 08:03:30;;;;;;;1.02;0.70;;;17.40;77.10;;;;;;5036024;28;20028;-83
2021/05/21 08:05:58;;;;;;;0.73;0.68;;;17.40;75.70;;;;;;5053033;28;20084;-80
2021/05/21 08:08:24;;;;;;;0.60;0.60;;;17.40;76.40;;;;;;5035656;28;20446;-77
2021/05/21 08:10:55;;;;;;;0.82;0.82;;;17.50;75.70;;;;;;5035108;28;20120;-89
2021/05/21 08:13:21;;;;;;;0.88;0.88;;;17.50;74.30;;;;;;5035413;28;20025;-91
2021/05/21 08:15:47;;;;;;;0.98;0.70;;;17.50;74.20;;;;;;5053831;28;20032;-91
2021/05/21 08:18:13;;;;;;;1.65;0.70;;;17.50;74.10;;;;;;5036266;28;20032;-86
2021/05/21 08:20:40;;;;;;;1.50;0.90;;;17.50;74.30;;;;;;5072077;28;20095;-88
2021/05/21 08:23:07;;;;;;;0.80;0.75;;;17.40;74.30;;;;;;5073447;28;20029;-87
2021/05/21 08:25:33;;;;;;;1.45;1.35;;;17.40;74.50;;;;;;5036154;28;20056;-78
2021/05/21 08:27:58;;;;;;;0.90;0.60;;;17.40;74.90;;;;;;5036095;28;20056;-79
2021/05/21 08:30:24;;;;;;;1.00;1.00;;;17.50;75.20;;;;;;5053222;28;20071;-86
2021/05/21 08:32:51;;;;;;;0.63;0.63;;;17.60;75.30;;;;;;5035360;28;20032;-75
2021/05/21 08:35:18;;;;;;;1.95;1.05;;;17.70;75.00;;;;;;5053527;28;20051;-76
2021/05/21 08:37:43;;;;;;;23.00;5.72;;;17.80;75.20;;;;;;5053653;28;20021;-76
2021/05/21 08:40:11;;;;;;;4.63;2.45;;;17.90;74.00;;;;;;5053845;28;20025;-85
2021/05/21 08:42:39;;;;;;;6.88;3.75;;;18.00;73.10;;;;;;5035026;28;20028;-76
2021/05/21 08:45:09;;;;;;;2.47;1.63;;;18.20;73.50;;;;;;5034916;28;20025;-79
2021/05/21 08:47:36;;;;;;;0.90;0.90;;;18.30;70.80;;;;;;5057082;28;20029;-83
2021/05/21 08:50:06;;;;;;;0.95;0.77;;;18.40;71.30;;;;;;5039739;28;20033;-76
2021/05/21 08:52:32;;;;;;;1.65;0.60;;;18.50;70.30;;;;;;5039456;28;20029;-77
2021/05/21 08:54:58;;;;;;;0.60;0.60;;;18.60;71.10;;;;;;5039291;28;20045;-79
2021/05/21 08:57:24;;;;;;;1.20;0.65;;;18.70;71.10;;;;;;5039367;28;20474;-78
2021/05/21 08:59:50;;;;;;;0.85;0.60;;;18.80;69.50;;;;;;5051860;28;20067;-80
2021/05/21 09:02:26;;;;;;;1.90;0.47;;;18.90;69.50;;;;;;5059290;28;20030;-80
2021/05/21 09:04:56;;;;;;;1.40;0.80;;;19.00;68.10;;;;;;5059317;28;20070;-81
2021/05/21 09:07:26;;;;;;;1.42;0.70;;;19.10;67.60;;;;;;5077205;28;20020;-78
2021/05/21 09:09:53;;;;;;;0.57;0.57;;;19.20;67.00;;;;;;5075799;28;20056;-83
2021/05/21 09:12:19;;;;;;;0.73;0.73;;;19.30;65.80;;;;;;5076871;28;20418;-79
2021/05/21 09:15:04;;;;;;;6.45;0.98;;;19.30;66.40;;;;;;5058768;28;20021;-82
2021/05/21 09:17:30;;;;;;;1.08;0.85;;;19.40;64.90;;;;;;5058791;28;20470;-87
2021/05/21 09:19:55;;;;;;;0.90;0.90;;;19.50;64.20;;;;;;5058860;28;20111;-79
2021/05/21 09:22:21;;;;;;;0.88;0.88;;;19.40;64.70;;;;;;5058445;28;20021;-79
2021/05/21 09:24:48;;;;;;;1.95;0.90;;;19.50;64.50;;;;;;5076697;28;20028;-75
2021/05/21 09:27:16;;;;;;;6.07;1.02;;;19.50;65.60;;;;;;5058484;28;20170;-81
2021/05/21 09:29:50;;;;;;;1.67;0.75;;;19.50;66.20;;;;;;5056825;28;20040;-86
2021/05/21 09:32:19;;;;;;;0.60;0.60;;;19.60;64.50;;;;;;5058742;28;20464;-88
2021/05/21 09:34:48;;;;;;;0.57;0.57;;;19.70;65.10;;;;;;5058573;28;20020;-72
2021/05/21 09:37:24;;;;;;;0.80;0.80;;;19.70;64.00;;;;;;5076549;28;20021;-82
2021/05/21 09:40:09;;;;;;;0.77;0.77;;;19.80;63.70;;;;;;5058604;28;20265;-79
2021/05/21 09:42:54;;;;;;;0.77;0.68;;;19.80;63.40;;;;;;5076232;28;20429;-82
2021/05/21 09:45:41;;;;;;;0.88;0.88;;;19.80;63.60;;;;;;5076423;28;20024;-83
2021/05/21 09:48:08;;;;;;;0.80;0.80;;;19.90;63.10;;;;;;5076023;28;20051;-82
2021/05/21 09:50:40;;;;;;;1.30;1.20;;;19.90;61.90;;;;;;5076335;28;20029;-82
2021/05/21 09:53:23;;;;;;;1.08;1.08;;;19.90;63.60;;;;;;5058401;28;20016;-86
2021/05/21 09:55:54;;;;;;;0.85;0.85;;;19.90;63.30;;;;;;5055781;28;20446;-80
2021/05/21 09:58:40;;;;;;;1.73;0.80;;;20.00;62.20;;;;;;5058667;28;20115;-91
2021/05/21 10:01:21;;;;;;;0.85;0.80;;;20.10;62.00;;;;;;5075894;28;20052;-79
2021/05/21 10:03:49;;;;;;;1.52;0.90;;;20.10;62.50;;;;;;5071207;28;20059;-84
2021/05/21 10:06:17;;;;;;;2.10;0.88;;;20.10;61.90;;;;;;5057919;28;20036;-84
2021/05/21 10:08:45;;;;;;;2.22;0.82;;;20.10;61.20;;;;;;5058165;28;20065;-80
2021/05/21 10:11:12;;;;;;;1.17;0.90;;;20.20;60.60;;;;;;5057698;28;20097;-87
2021/05/21 10:13:43;;;;;;;0.90;0.90;;;20.30;61.10;;;;;;5075804;28;20024;-83
2021/05/21 10:16:16;;;;;;;0.68;0.63;;;20.40;60.30;;;;;;5075749;28;20074;-88
2021/05/21 10:18:47;;;;;;;0.90;0.90;;;20.40;60.80;;;;;;5057683;28;20029;-80
2021/05/21 10:21:14;;;;;;;0.50;0.50;;;20.50;61.10;;;;;;5058343;28;20103;-78
2021/05/21 10:23:52;;;;;;;0.80;0.80;;;20.70;61.10;;;;;;5075704;28;20589;-80
2021/05/21 10:26:27;;;;;;;1.60;0.95;;;21.00;60.00;;;;;;5056701;28;20039;-80
2021/05/21 10:28:58;;;;;;;0.95;0.95;;;21.00;58.10;;;;;;5075431;28;20017;-74
2021/05/21 10:31:23;;;;;;;0.75;0.75;;;21.10;57.30;;;;;;5075467;28;20017;-83
2021/05/21 10:34:13;;;;;;;1.33;0.88;;;21.10;57.00;;;;;;5075389;28;20027;-80
2021/05/21 10:36:39;;;;;;;1.10;1.10;;;21.00;58.10;;;;;;5057780;28;20063;-79
2021/05/21 10:39:12;;;;;;;0.73;0.73;;;21.00;56.90;;;;;;5074854;28;20060;-86
2021/05/21 10:41:48;;;;;;;1.15;0.70;;;21.00;58.40;;;;;;5057305;28;20024;-84
2021/05/21 10:44:40;;;;;;;0.70;0.70;;;21.00;59.10;;;;;;5057249;28;20017;-78
2021/05/21 10:47:22;;;;;;;0.70;0.70;;;21.10;58.50;;;;;;5070458;28;20032;-77
2021/05/21 10:49:51;;;;;;;0.60;0.60;;;21.20;57.60;;;;;;5057596;28;20470;-84
2021/05/21 10:52:22;;;;;;;2.58;0.70;;;21.20;58.50;;;;;;5057254;28;20020;-88
2021/05/21 10:54:51;;;;;;;0.85;0.70;;;21.20;58.10;;;;;;5075209;28;20016;-76
2021/05/21 10:57:19;;;;;;;0.82;0.80;;;21.30;56.90;;;;;;5075088;28;20031;-74
2021/05/21 10:59:51;;;;;;;0.75;0.70;;;21.40;55.50;;;;;;5057294;28;20035;-91
2021/05/21 11:02:17;;;;;;;1.05;0.90;;;21.40;56.10;;;;;;5057135;28;20478;-83
2021/05/21 11:04:43;;;;;;;0.77;0.77;;;21.40;55.40;;;;;;5057089;28;20386;-84
2021/05/21 11:07:09;;;;;;;1.67;0.95;;;21.40;55.00;;;;;;5074450;28;20031;-80
2021/05/21 11:09:45;;;;;;;0.77;0.77;;;21.40;55.80;;;;;;5055574;28;20052;-78
2021/05/21 11:12:15;;;;;;;3.05;1.00;;;21.40;55.50;;;;;;5074498;28;20047;-89
2021/05/21 11:14:49;;;;;;;1.25;0.90;;;21.40;55.10;;;;;;5074880;28;20048;-77
2021/05/21 11:17:20;;;;;;;2.25;0.70;;;21.40;55.50;;;;;;5074680;28;20024;-90
2021/05/21 11:19:57;;;;;;;1.13;0.70;;;21.40;55.50;;;;;;5074759;28;20690;-94
2021/05/21 11:22:23;;;;;;;2.35;0.82;;;21.60;55.10;;;;;;5056735;28;20466;-84
2021/05/21 11:24:53;;;;;;;1.33;0.60;;;21.60;54.80;;;;;;5055549;28;20082;-81
2021/05/21 11:27:19;;;;;;;0.73;0.73;;;21.70;54.20;;;;;;5074310;28;20052;-88
2021/05/21 11:29:50;;;;;;;0.57;0.57;;;21.70;55.00;;;;;;5055314;28;20059;-80
2021/05/21 11:32:18;;;;;;;0.73;0.60;;;21.80;54.90;;;;;;5056143;28;20032;-80
2021/05/21 11:34:45;;;;;;;0.63;0.63;;;21.80;54.80;;;;;;5074141;28;20089;-82
2021/05/21 11:37:25;;;;;;;1.60;0.80;;;21.70;53.40;;;;;;5074283;28;20074;-88
2021/05/21 11:39:52;;;;;;;1.67;0.73;;;21.50;53.60;;;;;;5056435;28;20115;-85
2021/05/21 11:42:20;;;;;;;0.60;0.60;;;21.40;53.50;;;;;;5056244;28;20035;-86
2021/05/21 11:44:48;;;;;;;0.90;0.90;;;21.20;53.90;;;;;;5074343;28;20020;-86
2021/05/21 11:47:22;;;;;;;1.38;0.90;;;21.20;54.40;;;;;;5074400;28;20021;-81
2021/05/21 11:49:47;;;;;;;2.05;0.85;;;21.10;55.30;;;;;;5074443;28;20447;-89
2021/05/21 11:52:16;;;;;;;0.93;0.85;;;21.20;54.20;;;;;;5073940;28;20028;-81
2021/05/21 11:54:42;;;;;;;0.80;0.80;;;21.30;54.60;;;;;;5072270;28;20079;-88
2021/05/21 11:57:13;;;;;;;3.35;1.20;;;21.40;54.10;;;;;;5073834;28;20462;-83
2021/05/21 11:59:38;;;;;;;0.95;0.80;;;21.70;53.90;;;;;;5055941;28;20032;-88
2021/05/21 12:02:05;;;;;;;0.70;0.70;;;22.00;54.50;;;;;;5055820;28;20377;-84
2021/05/21 12:04:36;;;;;;;0.60;0.60;;;22.70;53.60;;;;;;5073749;28;20020;-79
2021/05/21 12:07:02;;;;;;;0.70;0.70;;;23.40;53.50;;;;;;5055576;28;20021;-83
2021/05/21 12:09:28;;;;;;;1.75;0.77;;;24.20;52.10;;;;;;5073599;28;20021;-83
2021/05/21 12:11:56;;;;;;;0.73;0.73;;;25.00;51.50;;;;;;5055700;28;20033;-88
2021/05/21 12:14:29;;;;;;;2.03;0.90;;;26.00;49.60;;;;;;5055860;28;20374;-80
2021/05/21 12:16:57;;;;;;;0.98;0.60;;;26.60;47.90;;;;;;5073658;28;20021;-80
2021/05/21 12:19:24;;;;;;;1.77;0.60;;;27.20;47.10;;;;;;5073568;28;20032;-81
2021/05/21 12:21:52;;;;;;;0.60;0.60;;;27.80;46.10;;;;;;5073522;28;20071;-79
2021/05/21 12:24:20;;;;;;;1.05;0.70;;;28.30;45.60;;;;;;5072299;28;20044;-87
2021/05/21 12:26:48;;;;;;;0.70;0.70;;;28.60;44.20;;;;;;5055537;28;20028;-86
2021/05/21 12:29:17;;;;;;;0.70;0.70;;;28.50;43.90;;;;;;5055759;28;20393;-82
2021/05/21 12:31:53;;;;;;;2.00;0.70;;;28.20;44.50;;;;;;5073740;28;20435;-83
2021/05/21 12:34:20;;;;;;;2.50;0.77;;;28.20;44.40;;;;;;5055825;28;20025;-88
2021/05/21 12:37:12;;;;;;;1.40;0.80;;;28.30;44.00;;;;;;5073555;28;20046;-91
2021/05/21 12:39:44;;;;;;;1.50;0.60;;;28.70;43.30;;;;;;5069136;28;20036;-86
2021/05/21 12:42:14;;;;;;;0.77;0.73;;;28.90;42.80;;;;;;5073646;28;20033;-82
2021/05/21 12:44:52;;;;;;;0.77;0.68;;;28.70;43.00;;;;;;5055779;28;20082;-80
2021/05/21 12:47:20;;;;;;;0.60;0.60;;;28.50;42.80;;;;;;5073362;28;20055;-83
2021/05/21 12:49:47;;;;;;;0.82;0.50;;;28.10;42.70;;;;;;5073194;28;20032;-84
2021/05/21 12:52:13;;;;;;;0.77;0.60;;;27.90;43.00;;;;;;5055232;28;20112;-80
2021/05/21 12:54:47;;;;;;;0.70;0.60;;;27.70;43.30;;;;;;5072377;28;20074;-90